Time;durP1;ratioP1;P1;durP2;ratioP2;P2;SDS_P1;SDS_P2;PMS_P1;PMS_P2;Temp;Humidity;BMP_temperature;BMP_pressure;BME280_temperature;BME280_humidity;BME280_pressure;Samples;Min_cycle;Max_cycle;Signal;HPM_P1;HPM_P2
2023/12/01 00:00:20;;;;;;;20.87;8.57;;;1.00;99.90;;;;;;5030184;28;20091;-69
2023/12/01 00:02:45;;;;;;;19.90;8.80;;;1.00;99.90;;;;;;5035748;28;20040;-69
2023/12/01 00:05:11;;;;;;;19.67;8.40;;;1.00;99.90;;;;;;5036645;28;20132;-69
2023/12/01 00:07:40;;;;;;;19.77;8.00;;;1.10;99.90;;;;;;5035218;28;20044;-71
2023/12/01 00:10:15;;;;;;;21.40;7.82;;;1.10;99.90;;;;;;5056434;28;20424;-71
2023/12/01 00:12:43;;;;;;;23.38;9.45;;;1.00;99.90;;;;;;5014120;28;20380;-69
2023/12/01 00:15:09;;;;;;;21.58;7.93;;;1.10;99.90;;;;;;5038327;28;20565;-69
2023/12/01 00:17:38;;;;;;;23.63;7.43;;;1.00;99.90;;;;;;5018431;28;20088;-69
2023/12/01 00:20:04;;;;;;;24.92;8.20;;;1.00;99.90;;;;;;5036314;28;20054;-69
2023/12/01 00:22:32;;;;;;;21.50;8.52;;;1.00;99.90;;;;;;5032831;28;20036;-69
2023/12/01 00:24:58;;;;;;;27.65;8.93;;;1.00;99.90;;;;;;5033817;28;20045;-69
2023/12/01 00:27:23;;;;;;;26.47;8.60;;;1.00;99.90;;;;;;5037029;28;20543;-69
2023/12/01 00:29:51;;;;;;;25.23;8.33;;;1.00;99.90;;;;;;5036971;28;20448;-69
2023/12/01 00:32:17;;;;;;;26.67;9.85;;;1.00;99.90;;;;;;5037066;28;20049;-72
2023/12/01 00:34:46;;;;;;;28.07;9.03;;;1.00;99.90;;;;;;5040372;28;20044;-69
2023/12/01 00:37:16;;;;;;;19.40;7.65;;;1.00;99.90;;;;;;5035751;28;20460;-69
2023/12/01 00:39:42;;;;;;;22.02;7.88;;;1.00;99.90;;;;;;5035984;28;20501;-69
2023/12/01 00:42:07;;;;;;;21.00;7.57;;;1.00;99.90;;;;;;5029191;28;20117;-69
2023/12/01 00:44:35;;;;;;;19.10;8.20;;;1.00;99.90;;;;;;5036817;28;20052;-70
2023/12/01 00:47:02;;;;;;;26.88;8.68;;;1.00;99.90;;;;;;5024572;28;20499;-69
2023/12/01 00:49:28;;;;;;;29.67;8.45;;;1.00;99.90;;;;;;5035825;28;20133;-70
2023/12/01 00:51:53;;;;;;;23.03;8.00;;;0.90;99.90;;;;;;5040591;28;20127;-69
2023/12/01 00:54:19;;;;;;;23.00;7.80;;;0.90;99.90;;;;;;5033896;28;20498;-69
2023/12/01 00:56:45;;;;;;;27.73;8.70;;;0.90;99.90;;;;;;5037417;28;20143;-69
2023/12/01 00:59:11;;;;;;;30.50;8.98;;;0.90;99.90;;;;;;5040102;28;20131;-69
2023/12/01 01:01:36;;;;;;;22.43;7.80;;;0.80;99.90;;;;;;5036104;28;20379;-69
2023/12/01 01:04:02;;;;;;;24.67;8.80;;;0.80;99.90;;;;;;5040036;28;20033;-69
2023/12/01 01:06:30;;;;;;;22.77;7.53;;;0.80;99.90;;;;;;5041282;28;20076;-69
2023/12/01 01:08:58;;;;;;;23.90;8.13;;;0.80;99.90;;;;;;5031849;28;20560;-71
2023/12/01 01:11:24;;;;;;;23.08;8.57;;;0.80;99.90;;;;;;5037411;28;21078;-71
2023/12/01 01:13:53;;;;;;;24.63;8.57;;;0.80;99.90;;;;;;5034274;28;20052;-71
2023/12/01 01:16:22;;;;;;;19.20;7.60;;;0.80;99.90;;;;;;5032431;28;20056;-69
2023/12/01 01:18:48;;;;;;;19.52;6.85;;;0.70;99.90;;;;;;5035355;28;20044;-69
2023/12/01 01:21:13;;;;;;;18.73;7.35;;;0.80;99.90;;;;;;5040084;28;20047;-69
2023/12/01 01:23:40;;;;;;;30.43;9.37;;;0.80;99.90;;;;;;5020825;28;20256;-69
2023/12/01 01:26:08;;;;;;;24.88;8.27;;;0.70;99.90;;;;;;5033065;28;20049;-69
2023/12/01 01:28:34;;;;;;;21.00;8.03;;;0.70;99.90;;;;;;5036502;28;20420;-71
2023/12/01 01:31:02;;;;;;;23.27;8.50;;;0.70;99.90;;;;;;5037710;28;20239;-69
2023/12/01 01:33:28;;;;;;;19.02;8.25;;;0.70;99.90;;;;;;5038654;28;20728;-69
2023/12/01 01:35:54;;;;;;;22.47;7.87;;;0.70;99.90;;;;;;5043658;28;20472;-68
2023/12/01 01:38:19;;;;;;;21.43;8.07;;;0.70;99.90;;;;;;5032408;28;20049;-69
2023/12/01 01:40:45;;;;;;;26.40;9.33;;;0.70;99.90;;;;;;5035916;28;20049;-69
2023/12/01 01:43:20;;;;;;;23.57;8.33;;;0.70;99.90;;;;;;5039598;28;20037;-69
2023/12/01 01:45:45;;;;;;;22.13;8.25;;;0.70;99.90;;;;;;5037519;28;20049;-69
2023/12/01 01:48:11;;;;;;;23.77;8.73;;;0.70;99.90;;;;;;5033916;28;20041;-69
2023/12/01 01:50:40;;;;;;;25.80;8.13;;;0.60;99.90;;;;;;5036387;28;20067;-69
2023/12/01 01:53:09;;;;;;;22.17;7.33;;;0.60;99.90;;;;;;5045048;28;20040;-69
2023/12/01 01:55:34;;;;;;;19.55;7.40;;;0.60;99.90;;;;;;5020966;28;20513;-69
2023/12/01 01:58:03;;;;;;;21.47;7.37;;;0.60;99.90;;;;;;5038179;28;20033;-70
2023/12/01 02:00:29;;;;;;;17.63;7.05;;;0.60;99.90;;;;;;5038708;28;20053;-69
2023/12/01 02:02:54;;;;;;;19.17;7.27;;;0.60;99.90;;;;;;5046830;28;20525;-69
2023/12/01 02:05:22;;;;;;;23.23;7.83;;;0.50;99.90;;;;;;5035203;28;20692;-69
2023/12/01 02:07:53;;;;;;;20.05;6.63;;;0.50;99.90;;;;;;5034350;28;20517;-69
2023/12/01 02:10:19;;;;;;;20.15;7.90;;;0.50;99.90;;;;;;5035772;28;20036;-69
2023/12/01 02:12:45;;;;;;;24.77;7.50;;;0.50;99.90;;;;;;5019465;28;20033;-70
2023/12/01 02:15:13;;;;;;;16.05;6.78;;;0.50;99.90;;;;;;5037702;28;20041;-70
2023/12/01 02:17:39;;;;;;;18.60;6.82;;;0.50;99.90;;;;;;5035506;28;20236;-69
2023/12/01 02:20:06;;;;;;;19.65;6.97;;;0.50;99.90;;;;;;5038877;28;20037;-70
2023/12/01 02:22:33;;;;;;;;;;;0.40;99.90;;;;;;5037924;28;20048;-69
2023/12/01 02:25:01;;;;;;;25.10;7.25;;;0.40;99.90;;;;;;5039326;28;19982;-69
2023/12/01 02:27:29;;;;;;;15.48;6.65;;;0.40;99.90;;;;;;5040638;28;20061;-69
2023/12/01 02:29:55;;;;;;;22.13;8.18;;;0.30;99.90;;;;;;5017575;28;20626;-69
2023/12/01 02:32:23;;;;;;;20.80;8.07;;;0.30;99.90;;;;;;5038477;28;20069;-69
2023/12/01 02:34:49;;;;;;;20.00;7.63;;;0.30;99.90;;;;;;5041576;28;20456;-69
2023/12/01 02:37:15;;;;;;;16.77;6.90;;;0.40;99.90;;;;;;5032236;28;20034;-69
2023/12/01 02:39:40;;;;;;;17.10;6.33;;;0.30;99.90;;;;;;5035525;28;20390;-69
2023/12/01 02:42:06;;;;;;;20.73;7.23;;;0.30;99.90;;;;;;5030040;28;20524;-69
2023/12/01 02:44:34;;;;;;;20.40;7.88;;;0.30;99.90;;;;;;5032234;28;20159;-69
2023/12/01 02:47:00;;;;;;;19.93;8.07;;;0.30;99.90;;;;;;5033494;28;20646;-69
2023/12/01 02:49:25;;;;;;;20.10;7.80;;;0.30;99.90;;;;;;5018020;28;20059;-69
2023/12/01 02:51:51;;;;;;;18.00;7.90;;;0.30;99.90;;;;;;5041791;28;20116;-69
2023/12/01 02:54:17;;;;;;;18.90;8.00;;;0.30;99.90;;;;;;5040137;28;20076;-69
2023/12/01 02:56:45;;;;;;;22.87;7.70;;;0.30;99.90;;;;;;5029516;28;20048;-69
2023/12/01 02:59:11;;;;;;;17.77;6.15;;;0.20;99.90;;;;;;5036977;28;20103;-69
2023/12/01 03:01:36;;;;;;;19.03;7.23;;;0.30;99.90;;;;;;5034215;28;20768;-69
2023/12/01 03:04:02;;;;;;;20.83;7.20;;;0.20;99.90;;;;;;5026016;28;20128;-69
2023/12/01 03:06:33;;;;;;;20.10;8.10;;;0.20;99.90;;;;;;5037882;28;20592;-69
2023/12/01 03:08:59;;;;;;;18.45;7.82;;;0.20;99.90;;;;;;5049289;28;20037;-69
2023/12/01 03:11:25;;;;;;;22.07;8.60;;;0.10;99.90;;;;;;5041488;28;20390;-69
2023/12/01 03:13:53;;;;;;;24.00;8.77;;;0.10;99.90;;;;;;5022686;28;20040;-69
2023/12/01 03:16:19;;;;;;;16.77;7.30;;;0.10;99.90;;;;;;5039968;28;20076;-69
2023/12/01 03:18:45;;;;;;;23.97;8.83;;;0.10;99.90;;;;;;5019042;28;20527;-69
2023/12/01 03:21:13;;;;;;;20.27;8.02;;;0.20;99.90;;;;;;5039152;28;20050;-69
2023/12/01 03:23:40;;;;;;;22.70;7.90;;;0.20;99.90;;;;;;5034578;28;20038;-69
2023/12/01 03:26:08;;;;;;;23.10;9.68;;;0.10;99.90;;;;;;5043415;28;20496;-69
2023/12/01 03:28:34;;;;;;;18.20;8.02;;;0.10;99.90;;;;;;5037559;28;20041;-69
2023/12/01 03:30:59;;;;;;;24.73;9.55;;;0.10;99.90;;;;;;5037124;28;20286;-69
2023/12/01 03:33:25;;;;;;;20.10;8.10;;;0.00;99.90;;;;;;5042100;28;20524;-69
2023/12/01 03:35:51;;;;;;;21.90;8.00;;;0.00;99.90;;;;;;5042616;28;20116;-69
2023/12/01 03:38:19;;;;;;;25.53;8.87;;;0.00;99.90;;;;;;5036776;28;20128;-69
2023/12/01 03:40:45;;;;;;;23.35;9.05;;;0.00;99.90;;;;;;5049058;28;20049;-70
2023/12/01 03:43:13;;;;;;;20.85;8.27;;;-0.10;99.90;;;;;;5038650;28;20041;-68
2023/12/01 03:45:39;;;;;;;20.57;8.93;;;-0.10;99.90;;;;;;5040520;28;21547;-68
2023/12/01 03:48:04;;;;;;;23.63;8.50;;;-0.20;99.90;;;;;;5033396;28;20041;-68
2023/12/01 03:50:30;;;;;;;20.70;8.80;;;-0.20;99.90;;;;;;5038685;28;20068;-71
2023/12/01 03:52:56;;;;;;;20.77;8.23;;;-0.20;99.90;;;;;;5044296;28;20159;-68
2023/12/01 03:55:22;;;;;;;22.35;9.05;;;-0.30;99.90;;;;;;5041220;28;20040;-67
2023/12/01 03:57:48;;;;;;;21.10;9.17;;;-0.30;99.90;;;;;;5041548;28;20551;-68
2023/12/01 04:00:21;;;;;;;17.30;8.07;;;-0.30;99.90;;;;;;5044183;28;20091;-68
2023/12/01 04:02:48;;;;;;;22.50;9.40;;;-0.40;99.90;;;;;;5037506;28;20075;-68
2023/12/01 04:05:18;;;;;;;24.67;8.95;;;-0.40;99.90;;;;;;5047903;28;20561;-68
2023/12/01 04:07:45;;;;;;;22.20;9.43;;;-0.50;99.90;;;;;;5049731;28;20479;-68
2023/12/01 04:10:12;;;;;;;25.95;9.52;;;-0.50;99.90;;;;;;5047178;28;20096;-68
2023/12/01 04:12:44;;;;;;;22.25;8.30;;;-0.50;99.90;;;;;;5042607;28;20418;-67
2023/12/01 04:15:12;;;;;;;21.30;8.15;;;-0.60;99.90;;;;;;5023656;28;20049;-68
2023/12/01 04:17:42;;;;;;;21.48;8.38;;;-0.60;99.90;;;;;;5041359;28;20358;-69
2023/12/01 04:20:25;;;;;;;21.77;9.00;;;-0.60;99.90;;;;;;5027870;28;20051;-67
2023/12/01 04:23:00;;;;;;;21.55;8.95;;;-0.70;99.90;;;;;;5044088;28;20042;-67
2023/12/01 04:25:28;;;;;;;25.25;9.07;;;-0.70;99.90;;;;;;5038189;28;20065;-67
2023/12/01 04:27:56;;;;;;;20.92;8.95;;;-0.80;99.90;;;;;;5036731;28;20435;-67
2023/12/01 04:30:25;;;;;;;28.38;9.82;;;-0.80;99.90;;;;;;5043424;28;20625;-67
2023/12/01 04:32:55;;;;;;;24.23;8.88;;;-0.80;99.90;;;;;;5045580;28;20045;-68
2023/12/01 04:35:21;;;;;;;22.67;9.50;;;-0.80;99.90;;;;;;5043336;28;20125;-67
2023/12/01 04:37:47;;;;;;;24.15;8.70;;;-0.80;99.90;;;;;;5042065;28;20416;-68
2023/12/01 04:40:15;;;;;;;20.00;9.20;;;-0.90;99.90;;;;;;5040078;28;20045;-68
2023/12/01 04:42:46;;;;;;;22.23;8.90;;;-0.90;99.90;;;;;;5027783;28;20045;-67
2023/12/01 04:45:13;;;;;;;23.77;8.82;;;-1.00;99.90;;;;;;5039746;28;20059;-68
2023/12/01 04:47:40;;;;;;;23.33;9.00;;;-1.00;99.90;;;;;;5037052;28;20721;-67
2023/12/01 04:50:12;;;;;;;24.60;10.02;;;-1.10;99.90;;;;;;5041357;28;20033;-67
2023/12/01 04:52:46;;;;;;;21.25;8.50;;;-1.10;99.90;;;;;;5033099;28;20035;-67
2023/12/01 04:55:14;;;;;;;19.70;8.07;;;-1.10;99.90;;;;;;5042821;28;20502;-67
2023/12/01 04:57:41;;;;;;;22.80;9.07;;;-1.10;99.90;;;;;;5043200;28;20250;-67
2023/12/01 05:00:21;;;;;;;24.60;9.15;;;-1.20;99.90;;;;;;5019995;28;20041;-67
2023/12/01 05:02:59;;;;;;;22.75;9.65;;;-1.20;99.90;;;;;;5043530;28;20063;-67
2023/12/01 05:05:30;;;;;;;26.85;10.45;;;-1.30;99.90;;;;;;5042423;28;20421;-68
2023/12/01 05:08:01;;;;;;;23.05;8.75;;;-1.30;99.90;;;;;;5040507;28;20497;-67
2023/12/01 05:10:31;;;;;;;25.65;9.15;;;-1.30;99.90;;;;;;5042273;28;20033;-67
2023/12/01 05:13:02;;;;;;;23.58;8.88;;;-1.30;99.90;;;;;;5038497;28;20544;-67
2023/12/01 05:15:30;;;;;;;22.90;9.40;;;-1.30;99.90;;;;;;5041373;28;20108;-66
2023/12/01 05:17:59;;;;;;;26.02;8.50;;;-1.40;99.90;;;;;;5035979;28;20063;-67
2023/12/01 05:20:28;;;;;;;24.42;8.18;;;-1.40;99.90;;;;;;5040231;28;20032;-68
2023/12/01 05:22:58;;;;;;;27.85;9.35;;;-1.40;99.90;;;;;;5051580;28;20060;-67
2023/12/01 05:25:29;;;;;;;25.65;9.95;;;-1.50;99.90;;;;;;5040961;28;20797;-66
2023/12/01 05:27:59;;;;;;;26.77;10.77;;;-1.50;99.90;;;;;;5040280;28;20033;-67
2023/12/01 05:30:27;;;;;;;26.73;9.77;;;-1.50;99.90;;;;;;5041027;28;20055;-66
2023/12/01 05:32:58;;;;;;;29.15;9.48;;;-1.50;99.90;;;;;;5034624;28;20131;-67
2023/12/01 05:35:25;;;;;;;23.00;8.82;;;-1.60;99.90;;;;;;5039234;28;20083;-67
2023/12/01 05:37:51;;;;;;;;;;;-1.60;99.90;;;;;;5040324;28;20539;-67
2023/12/01 05:40:24;;;;;;;24.55;8.52;;;-1.60;99.90;;;;;;5044093;28;20346;-66
2023/12/01 05:42:54;;;;;;;25.70;10.32;;;-1.60;99.90;;;;;;5040799;28;20551;-67
2023/12/01 05:45:22;;;;;;;25.35;9.77;;;-1.70;99.90;;;;;;5039569;28;20069;-66
2023/12/01 05:47:52;;;;;;;24.25;9.07;;;-1.60;99.90;;;;;;5041416;28;20040;-66
2023/12/01 05:50:26;;;;;;;21.15;8.75;;;-1.70;99.90;;;;;;5045961;28;20496;-67
2023/12/01 05:52:54;;;;;;;22.98;7.68;;;-1.70;99.90;;;;;;5021360;28;20067;-67
2023/12/01 05:55:26;;;;;;;29.23;10.18;;;-1.70;99.90;;;;;;5042123;28;20402;-66
2023/12/01 05:57:59;;;;;;;23.48;9.35;;;-1.70;99.90;;;;;;5035449;28;20090;-67
2023/12/01 06:00:32;;;;;;;25.80;9.93;;;-1.70;99.90;;;;;;5036238;28;20052;-66
2023/12/01 06:03:08;;;;;;;20.33;8.38;;;-1.70;99.90;;;;;;5038239;28;20354;-68
2023/12/01 06:05:35;;;;;;;24.30;9.23;;;-1.70;99.90;;;;;;5040378;28;20048;-66
2023/12/01 06:08:02;;;;;;;25.10;8.95;;;-1.80;99.90;;;;;;5026838;28;20090;-67
2023/12/01 06:10:29;;;;;;;;;;;-1.80;99.90;;;;;;5039689;28;20546;-66
2023/12/01 06:12:55;;;;;;;24.33;8.32;;;-1.80;99.90;;;;;;5043501;28;19920;-67
2023/12/01 06:15:21;;;;;;;25.85;8.35;;;-1.90;99.90;;;;;;5039939;28;20139;-67
2023/12/01 06:17:50;;;;;;;25.58;9.50;;;-1.90;99.90;;;;;;5040867;28;20056;-66
2023/12/01 06:20:21;;;;;;;23.23;9.50;;;-1.90;99.90;;;;;;5035798;28;20041;-66
2023/12/01 06:22:50;;;;;;;25.15;8.55;;;-1.90;99.90;;;;;;5043525;28;20044;-66
2023/12/01 06:25:29;;;;;;;22.58;9.07;;;-1.90;99.90;;;;;;5045277;28;20098;-66
2023/12/01 06:28:00;;;;;;;27.90;8.80;;;-1.90;99.90;;;;;;5041861;28;20053;-67
2023/12/01 06:30:28;;;;;;;21.92;8.45;;;-1.90;99.90;;;;;;5043711;28;20051;-66
2023/12/01 06:32:53;;;;;;;24.23;8.75;;;-2.00;99.90;;;;;;5038504;28;20044;-66
2023/12/01 06:35:20;;;;;;;28.57;9.93;;;-2.00;99.90;;;;;;5041551;28;20041;-66
2023/12/01 06:37:47;;;;;;;21.48;8.70;;;-2.00;99.90;;;;;;5035093;28;20397;-66
2023/12/01 06:40:17;;;;;;;21.77;8.60;;;-2.00;99.90;;;;;;5041554;28;20045;-67
2023/12/01 06:42:47;;;;;;;23.48;9.00;;;-2.00;99.90;;;;;;5036552;28;20077;-67
2023/12/01 06:45:17;;;;;;;28.75;9.25;;;-2.00;99.90;;;;;;5037713;28;20059;-71
2023/12/01 06:47:46;;;;;;;22.25;9.00;;;-2.00;99.90;;;;;;5035946;28;20513;-70
2023/12/01 06:50:14;;;;;;;27.73;8.30;;;-2.00;99.90;;;;;;5041298;28;20568;-67
2023/12/01 06:52:49;;;;;;;27.73;9.63;;;-2.00;99.90;;;;;;5034839;28;20040;-68
2023/12/01 06:55:16;;;;;;;27.58;9.13;;;-2.10;99.90;;;;;;5044536;28;20040;-69
2023/12/01 06:57:43;;;;;;;23.70;8.48;;;-2.10;99.90;;;;;;5042338;28;20524;-67
2023/12/01 07:00:28;;;;;;;25.77;9.45;;;-2.10;99.90;;;;;;5039999;28;20040;-67
2023/12/01 07:02:59;;;;;;;21.80;8.77;;;-2.10;99.90;;;;;;5036856;28;20037;-67
2023/12/01 07:05:26;;;;;;;26.02;9.93;;;-2.10;99.90;;;;;;5037172;28;20052;-66
2023/12/01 07:07:53;;;;;;;24.23;8.77;;;-2.10;99.90;;;;;;5035159;28;20119;-67
2023/12/01 07:10:21;;;;;;;29.95;9.95;;;-2.10;99.90;;;;;;5035771;28;20496;-67
2023/12/01 07:12:47;;;;;;;24.25;8.20;;;-2.10;99.90;;;;;;5041843;28;20044;-67
2023/12/01 07:15:20;;;;;;;29.67;8.90;;;-2.20;99.90;;;;;;5040736;28;20267;-66
2023/12/01 07:17:54;;;;;;;31.17;12.85;;;-2.20;99.90;;;;;;5023038;28;20075;-67
2023/12/01 07:20:20;;;;;;;27.98;11.32;;;-2.10;99.90;;;;;;5018886;28;20398;-67
2023/12/01 07:22:48;;;;;;;28.77;10.13;;;-2.10;99.90;;;;;;5039005;28;20061;-67
2023/12/01 07:25:21;;;;;;;31.48;11.25;;;-2.10;99.90;;;;;;5035835;28;20131;-66
2023/12/01 07:27:53;;;;;;;28.27;10.35;;;-2.10;99.90;;;;;;5038607;28;20053;-67
2023/12/01 07:30:19;;;;;;;30.45;9.95;;;-2.20;99.90;;;;;;5041962;28;20274;-67
2023/12/01 07:32:48;;;;;;;33.00;11.20;;;-2.20;99.90;;;;;;5043076;28;20037;-67
2023/12/01 07:35:15;;;;;;;32.17;11.20;;;-2.20;99.90;;;;;;5044876;28;20073;-67
2023/12/01 07:37:45;;;;;;;27.33;9.73;;;-2.20;99.90;;;;;;5034664;28;20127;-66
2023/12/01 07:40:19;;;;;;;30.48;9.98;;;-2.20;99.90;;;;;;5041174;28;20043;-66
2023/12/01 07:42:49;;;;;;;29.83;9.48;;;-2.20;99.90;;;;;;5040810;28;20038;-67
2023/12/01 07:45:19;;;;;;;21.55;8.95;;;-2.30;99.90;;;;;;5023368;28;20107;-67
2023/12/01 07:47:57;;;;;;;26.58;9.18;;;-2.20;99.90;;;;;;5041294;28;20044;-66
2023/12/01 07:50:23;;;;;;;41.45;13.80;;;-2.30;99.90;;;;;;5034371;28;20074;-67
2023/12/01 07:52:53;;;;;;;54.75;18.25;;;-2.30;99.90;;;;;;5041391;28;20045;-67
2023/12/01 07:55:22;;;;;;;59.42;18.50;;;-2.30;99.90;;;;;;5042355;28;20041;-67
2023/12/01 07:57:51;;;;;;;47.03;14.75;;;-2.30;99.90;;;;;;5041847;28;20094;-66
2023/12/01 08:00:17;;;;;;;33.13;13.93;;;-2.30;99.90;;;;;;5042347;28;20077;-67
2023/12/01 08:02:44;;;;;;;31.63;11.45;;;-2.30;99.90;;;;;;5044567;28;20377;-67
2023/12/01 08:05:13;;;;;;;38.63;13.77;;;-2.40;99.90;;;;;;5042128;28;20049;-67
2023/12/01 08:07:44;;;;;;;32.55;11.27;;;-2.30;99.90;;;;;;5020179;28;20585;-68
2023/12/01 08:10:14;;;;;;;27.95;10.13;;;-2.30;99.90;;;;;;5041512;28;20033;-67
2023/12/01 08:12:45;;;;;;;33.97;11.40;;;-2.30;99.90;;;;;;5038173;28;20143;-67
2023/12/01 08:15:11;;;;;;;32.35;10.75;;;-2.30;99.90;;;;;;5039769;28;20108;-67
2023/12/01 08:17:37;;;;;;;25.73;9.98;;;-2.30;99.90;;;;;;5037629;28;20044;-67
2023/12/01 08:20:07;;;;;;;25.38;11.90;;;-2.30;99.90;;;;;;5039161;28;20516;-67
2023/12/01 08:22:37;;;;;;;26.30;10.55;;;-2.30;99.90;;;;;;5028504;28;20052;-67
2023/12/01 08:25:04;;;;;;;30.50;10.77;;;-2.30;99.90;;;;;;5041189;28;20044;-66
2023/12/01 08:27:29;;;;;;;;;;;-2.30;99.90;;;;;;5038678;28;20168;-66
2023/12/01 08:29:55;;;;;;;29.00;9.57;;;-2.30;99.90;;;;;;5036682;28;20045;-67
2023/12/01 08:32:21;;;;;;;29.07;11.33;;;-2.20;99.90;;;;;;5028815;28;20498;-67
2023/12/01 08:34:47;;;;;;;27.23;11.13;;;-2.20;99.90;;;;;;5037927;28;20029;-67
2023/12/01 08:37:13;;;;;;;29.33;10.93;;;-2.20;99.90;;;;;;5041077;28;20037;-68
2023/12/01 08:39:38;;;;;;;26.53;10.67;;;-2.10;99.90;;;;;;5044352;28;20048;-67
2023/12/01 08:42:04;;;;;;;26.63;10.30;;;-2.20;99.90;;;;;;5046252;28;20037;-68
2023/12/01 08:44:30;;;;;;;36.47;11.52;;;-2.10;99.90;;;;;;5040375;28;20041;-67
2023/12/01 08:46:56;;;;;;;28.60;10.73;;;-2.10;99.90;;;;;;5046507;28;20067;-67
2023/12/01 08:49:22;;;;;;;32.27;10.97;;;-2.10;99.90;;;;;;5042425;28;20119;-67
2023/12/01 08:51:48;;;;;;;27.67;10.60;;;-2.00;99.90;;;;;;5044749;28;20048;-67
2023/12/01 08:54:13;;;;;;;28.50;10.37;;;-2.00;99.90;;;;;;5037623;28;20045;-67
2023/12/01 08:56:41;;;;;;;27.83;10.75;;;-2.00;99.90;;;;;;5044906;28;20040;-67
2023/12/01 08:59:07;;;;;;;38.67;12.70;;;-2.00;99.90;;;;;;5041534;28;20085;-67
2023/12/01 09:01:33;;;;;;;34.45;11.75;;;-1.90;99.90;;;;;;5042950;28;20072;-67
2023/12/01 09:03:59;;;;;;;28.83;10.63;;;-1.80;99.90;;;;;;5043214;28;20052;-67
2023/12/01 09:06:24;;;;;;;28.30;9.53;;;-1.80;99.90;;;;;;5045809;28;20306;-67
2023/12/01 09:08:50;;;;;;;28.53;10.57;;;-1.80;99.90;;;;;;5026833;28;20041;-67
2023/12/01 09:11:16;;;;;;;33.13;10.87;;;-1.70;99.90;;;;;;5045690;28;20056;-67
2023/12/01 09:13:41;;;;;;;30.47;10.43;;;-1.70;99.90;;;;;;5043352;28;20098;-68
2023/12/01 09:16:07;;;;;;;26.63;9.57;;;-1.70;99.90;;;;;;5042118;28;20519;-67
2023/12/01 09:18:33;;;;;;;24.08;10.43;;;-1.60;99.90;;;;;;5041176;28;20065;-68
2023/12/01 09:20:59;;;;;;;29.93;11.03;;;-1.60;99.90;;;;;;5029753;28;20073;-67
2023/12/01 09:23:25;;;;;;;23.67;9.50;;;-1.50;99.90;;;;;;5024834;28;20037;-68
2023/12/01 09:25:51;;;;;;;28.03;10.90;;;-1.50;99.90;;;;;;5025790;28;20037;-68
2023/12/01 09:28:17;;;;;;;29.58;10.18;;;-1.40;99.90;;;;;;5037455;28;20087;-67
2023/12/01 09:30:43;;;;;;;25.23;8.73;;;-1.40;99.90;;;;;;5026117;28;20134;-67
2023/12/01 09:33:09;;;;;;;30.05;9.90;;;-1.30;99.90;;;;;;5042456;28;20056;-68
2023/12/01 09:35:34;;;;;;;26.27;9.53;;;-1.30;99.90;;;;;;5042261;28;20051;-67
2023/12/01 09:38:00;;;;;;;25.13;9.93;;;-1.20;99.90;;;;;;5024345;28;20059;-67
2023/12/01 09:40:26;;;;;;;25.00;9.13;;;-1.10;99.90;;;;;;5038756;28;20086;-68
2023/12/01 09:42:53;;;;;;;27.67;9.20;;;-1.10;99.90;;;;;;5039646;28;20044;-68
2023/12/01 09:45:22;;;;;;;26.88;9.23;;;-1.00;99.90;;;;;;5035058;28;20048;-67
2023/12/01 09:47:57;;;;;;;27.33;10.15;;;-1.00;99.90;;;;;;5044631;28;20397;-68
2023/12/01 09:50:23;;;;;;;23.65;9.45;;;-0.90;99.90;;;;;;5043323;28;20099;-67
2023/12/01 09:52:51;;;;;;;25.13;8.93;;;-0.90;99.90;;;;;;5040119;28;20282;-67
2023/12/01 09:55:17;;;;;;;26.50;10.07;;;-0.80;99.90;;;;;;5041426;28;20459;-68
2023/12/01 09:57:43;;;;;;;20.40;8.23;;;-0.80;99.90;;;;;;5040351;28;20071;-67
2023/12/01 10:00:11;;;;;;;22.53;8.93;;;-0.80;99.90;;;;;;5021135;28;20033;-67
2023/12/01 10:02:40;;;;;;;22.15;8.30;;;-0.70;99.90;;;;;;5039961;28;20084;-67
2023/12/01 10:05:06;;;;;;;25.90;8.80;;;-0.60;99.90;;;;;;5041116;28;20087;-67
2023/12/01 10:07:33;;;;;;;28.92;10.60;;;-0.60;99.90;;;;;;5038938;28;20037;-68
2023/12/01 10:09:59;;;;;;;27.33;10.90;;;-0.60;99.90;;;;;;5040765;28;20659;-67
2023/12/01 10:12:25;;;;;;;23.10;9.50;;;-0.50;99.90;;;;;;5040031;28;20128;-67
2023/12/01 10:14:50;;;;;;;27.03;9.17;;;-0.40;99.90;;;;;;5041636;28;20037;-67
2023/12/01 10:17:26;;;;;;;20.90;8.43;;;-0.30;99.90;;;;;;5033903;28;20599;-68
2023/12/01 10:19:52;;;;;;;23.02;9.25;;;-0.30;99.90;;;;;;5026499;28;20429;-68
2023/12/01 10:22:19;;;;;;;24.43;9.43;;;-0.20;99.90;;;;;;5034997;28;20108;-68
2023/12/01 10:24:56;;;;;;;21.33;7.85;;;-0.20;99.90;;;;;;5035147;28;20040;-67
2023/12/01 10:27:22;;;;;;;24.70;8.93;;;-0.10;99.90;;;;;;5034885;28;20036;-67
2023/12/01 10:29:48;;;;;;;20.43;8.90;;;-0.10;99.90;;;;;;5039741;28;20045;-67
2023/12/01 10:32:16;;;;;;;19.40;8.33;;;0.00;99.90;;;;;;5039382;28;20493;-67
2023/12/01 10:34:52;;;;;;;21.42;8.52;;;0.00;99.90;;;;;;5037512;28;20037;-68
2023/12/01 10:37:19;;;;;;;18.13;7.45;;;0.10;99.90;;;;;;5040164;28;20049;-67
2023/12/01 10:39:47;;;;;;;21.30;9.25;;;0.20;99.90;;;;;;5039197;28;20048;-68
2023/12/01 10:42:13;;;;;;;21.30;7.78;;;0.20;99.90;;;;;;5037418;28;20050;-68
2023/12/01 10:44:39;;;;;;;19.67;8.10;;;0.20;99.90;;;;;;5042922;28;20049;-68
2023/12/01 10:47:07;;;;;;;19.15;7.57;;;0.30;99.90;;;;;;5040559;28;20038;-69
2023/12/01 10:49:35;;;;;;;22.77;8.35;;;0.30;99.90;;;;;;5043761;28;20033;-73
2023/12/01 10:52:01;;;;;;;19.67;7.63;;;0.30;99.90;;;;;;5043759;28;20044;-68
2023/12/01 10:54:27;;;;;;;21.70;8.07;;;0.30;99.90;;;;;;5040408;28;20385;-67
2023/12/01 10:57:27;;;;;;;18.95;8.07;;;0.30;99.90;;;;;;5042640;28;20080;-76
2023/12/01 10:59:54;;;;;;;19.50;7.25;;;0.40;99.90;;;;;;5036021;28;20324;-68
2023/12/01 11:02:21;;;;;;;18.55;7.93;;;0.40;99.90;;;;;;5041930;28;20041;-69
2023/12/01 11:04:48;;;;;;;17.80;7.65;;;0.40;99.90;;;;;;5036008;28;20068;-68
2023/12/01 11:07:46;;;;;;;16.95;7.38;;;0.50;99.90;;;;;;5033985;28;20069;-68
2023/12/01 11:10:33;;;;;;;21.02;7.35;;;0.60;99.90;;;;;;5038996;28;20136;-68
2023/12/01 11:13:12;;;;;;;18.27;7.07;;;0.60;99.90;;;;;;5039377;28;20044;-68
2023/12/01 11:15:41;;;;;;;19.02;8.18;;;0.60;99.90;;;;;;5031448;28;20048;-69
2023/12/01 11:18:10;;;;;;;20.73;7.90;;;0.60;99.90;;;;;;5035108;28;20121;-68
2023/12/01 11:20:40;;;;;;;20.75;8.18;;;0.70;99.90;;;;;;5035449;28;20067;-69
2023/12/01 11:23:10;;;;;;;19.85;8.50;;;0.70;99.90;;;;;;5041583;28;20079;-69
2023/12/01 11:25:42;;;;;;;19.05;8.57;;;0.70;99.90;;;;;;5021909;28;20084;-68
2023/12/01 11:28:27;;;;;;;19.52;7.72;;;0.70;99.90;;;;;;5019454;28;20060;-67
2023/12/01 11:33:47;;;;;;;19.27;7.85;;;0.80;99.90;;;;;;5039654;28;20052;-68
2023/12/01 11:36:27;;;;;;;17.42;7.43;;;0.90;99.90;;;;;;5043559;28;20037;-69
2023/12/01 11:39:20;;;;;;;17.52;7.57;;;0.90;99.90;;;;;;5040264;28;20048;-68
2023/12/01 11:42:13;;;;;;;18.95;7.95;;;1.00;99.90;;;;;;5034412;28;20772;-69
2023/12/01 11:44:40;;;;;;;17.70;7.38;;;1.00;99.90;;;;;;5033297;28;20049;-69
2023/12/01 11:47:13;;;;;;;19.23;8.30;;;1.00;99.90;;;;;;5036907;28;20044;-69
2023/12/01 11:49:44;;;;;;;19.17;7.95;;;1.10;99.90;;;;;;5043744;28;20037;-69
2023/12/01 11:52:13;;;;;;;18.45;7.55;;;1.10;99.90;;;;;;5036882;28;20421;-71
2023/12/01 11:54:39;;;;;;;20.08;7.95;;;1.20;99.90;;;;;;5036001;28;20298;-69
2023/12/01 11:57:12;;;;;;;18.00;7.00;;;1.20;99.90;;;;;;5041464;28;20128;-68
2023/12/01 11:59:38;;;;;;;16.98;8.45;;;1.20;99.90;;;;;;5039971;28;20077;-69
2023/12/01 12:02:04;;;;;;;15.45;6.97;;;1.10;99.90;;;;;;5041615;28;20037;-69
2023/12/01 12:04:32;;;;;;;17.90;8.45;;;1.00;99.90;;;;;;5034383;28;20041;-69
2023/12/01 12:07:00;;;;;;;18.20;7.95;;;1.00;99.90;;;;;;5040386;28;20060;-69
2023/12/01 12:09:31;;;;;;;16.17;7.70;;;1.00;99.90;;;;;;5041290;28;20045;-68
2023/12/01 12:11:58;;;;;;;17.58;7.63;;;1.00;99.90;;;;;;5035026;28;20046;-69
2023/12/01 12:14:25;;;;;;;17.17;7.38;;;1.00;99.90;;;;;;5033940;28;20176;-69
2023/12/01 12:16:51;;;;;;;20.63;8.70;;;1.00;99.90;;;;;;5043097;28;20471;-69
2023/12/01 12:19:18;;;;;;;20.33;8.77;;;0.90;99.90;;;;;;5043611;28;20041;-69
2023/12/01 12:21:45;;;;;;;19.05;7.70;;;0.90;99.90;;;;;;5039897;28;20045;-69
2023/12/01 12:24:11;;;;;;;27.30;10.15;;;0.90;99.90;;;;;;5041440;28;20040;-69
2023/12/01 12:26:37;;;;;;;26.50;11.05;;;0.90;99.90;;;;;;5038114;28;20511;-69
2023/12/01 12:29:05;;;;;;;23.35;9.50;;;0.90;99.90;;;;;;5039413;28;20033;-69
2023/12/01 12:31:35;;;;;;;20.65;8.18;;;0.90;99.90;;;;;;5042722;28;20049;-69
2023/12/01 12:34:03;;;;;;;17.40;7.75;;;0.80;99.90;;;;;;5046204;28;20037;-69
2023/12/01 12:36:32;;;;;;;19.50;7.38;;;0.80;99.90;;;;;;5036323;28;20052;-69
2023/12/01 12:39:06;;;;;;;17.70;8.43;;;0.70;99.90;;;;;;5041298;28;20502;-69
2023/12/01 12:41:40;;;;;;;16.27;7.30;;;0.70;99.90;;;;;;5042455;28;20230;-69
2023/12/01 12:44:07;;;;;;;18.58;8.23;;;0.70;99.90;;;;;;5037471;28;20396;-69
2023/12/01 12:46:34;;;;;;;21.95;7.82;;;0.70;99.90;;;;;;5042233;28;20041;-68
2023/12/01 12:49:03;;;;;;;19.75;8.00;;;0.80;99.90;;;;;;5036396;28;20029;-69